createdAt,value
2023-05-01T00:00:18.080Z,37
2023-05-01T00:01:18.112Z,37
2023-05-01T00:02:18.080Z,37
2023-05-01T00:03:18.293Z,37
2023-05-01T00:04:18.162Z,37
2023-05-01T00:05:18.077Z,37
2023-05-01T00:06:18.015Z,37
2023-05-01T00:07:18.056Z,37
2023-05-01T00:08:17.983Z,37
2023-05-01T00:09:18.039Z,37
2023-05-01T00:10:17.973Z,37
2023-05-01T00:11:18.010Z,37
2023-05-01T00:12:17.943Z,37
2023-05-01T00:13:17.980Z,36
2023-05-01T00:14:18.045Z,36
2023-05-01T00:15:17.899Z,36
2023-05-01T00:16:18.059Z,36
2023-05-01T00:17:17.872Z,36
2023-05-01T00:18:17.961Z,36
2023-05-01T00:19:17.849Z,36
2023-05-01T00:20:17.919Z,36
2023-05-01T00:21:17.830Z,36
2023-05-01T00:22:17.906Z,36
2023-05-01T00:23:17.815Z,37
2023-05-01T00:24:17.893Z,37
2023-05-01T00:25:17.787Z,37
2023-05-01T00:26:17.852Z,36
2023-05-01T00:27:17.766Z,36
2023-05-01T00:28:17.830Z,36
2023-05-01T00:29:17.747Z,36
2023-05-01T00:30:17.823Z,36
2023-05-01T00:31:17.774Z,36
2023-05-01T00:32:17.820Z,36
2023-05-01T00:33:17.711Z,37
2023-05-01T00:34:17.786Z,37
2023-05-01T00:35:17.682Z,37
2023-05-01T00:36:17.757Z,37
2023-05-01T00:37:17.664Z,37
2023-05-01T00:38:17.735Z,36
2023-05-01T00:39:17.656Z,36
2023-05-01T00:40:17.725Z,36
2023-05-01T00:41:17.618Z,36
2023-05-01T00:42:17.711Z,36
2023-05-01T00:43:17.598Z,36
2023-05-01T00:44:17.678Z,36
2023-05-01T00:45:17.580Z,36
2023-05-01T00:46:17.716Z,36
2023-05-01T00:47:17.551Z,36
2023-05-01T00:48:17.621Z,36
2023-05-01T00:49:17.562Z,36
2023-05-01T00:50:17.611Z,36
2023-05-01T00:51:17.515Z,36
2023-05-01T00:52:17.595Z,36
2023-05-01T00:53:17.489Z,36
2023-05-01T00:54:17.556Z,36
2023-05-01T00:55:17.481Z,36
2023-05-01T00:56:17.539Z,36
2023-05-01T00:57:17.449Z,36
2023-05-01T00:58:17.524Z,37
2023-05-01T00:59:17.425Z,36
2023-05-01T01:00:17.494Z,36
2023-05-01T01:01:17.482Z,37
2023-05-01T01:02:17.498Z,37
2023-05-01T01:03:17.384Z,37
2023-05-01T01:04:17.507Z,37
2023-05-01T01:05:17.363Z,37
2023-05-01T01:06:17.594Z,36
2023-05-01T01:07:17.341Z,36
2023-05-01T01:08:17.408Z,37
2023-05-01T01:09:17.312Z,37
2023-05-01T01:10:17.389Z,37
2023-05-01T01:11:17.289Z,37
2023-05-01T01:12:17.381Z,37
2023-05-01T01:13:17.274Z,37
2023-05-01T01:14:17.336Z,37
2023-05-01T01:15:17.252Z,37
2023-05-01T01:16:17.339Z,37
2023-05-01T01:17:17.294Z,37
2023-05-01T01:18:17.301Z,37
2023-05-01T01:19:17.225Z,37
2023-05-01T01:20:17.284Z,37
2023-05-01T01:21:17.188Z,37
2023-05-01T01:22:17.258Z,37
2023-05-01T01:23:17.165Z,37
2023-05-01T01:24:17.226Z,37
2023-05-01T01:25:17.145Z,37
2023-05-01T01:26:17.204Z,37
2023-05-01T01:27:17.126Z,37
2023-05-01T01:28:17.191Z,37
2023-05-01T01:29:17.107Z,37
2023-05-01T01:30:17.160Z,37
2023-05-01T01:31:17.100Z,36
2023-05-01T01:32:17.160Z,36
2023-05-01T01:33:17.091Z,36
2023-05-01T01:34:17.108Z,36
2023-05-01T01:35:17.045Z,36
2023-05-01T01:36:17.129Z,36
2023-05-01T01:37:17.029Z,36
2023-05-01T01:38:17.063Z,37
2023-05-01T01:39:17.010Z,37
2023-05-01T01:40:17.055Z,37
2023-05-01T01:41:16.983Z,37
2023-05-01T01:42:17.043Z,37
2023-05-01T01:43:16.984Z,37
2023-05-01T01:44:17.001Z,37
2023-05-01T01:45:16.937Z,37
2023-05-01T01:46:17.049Z,37
2023-05-01T01:47:16.914Z,37
2023-05-01T01:48:16.966Z,37
2023-05-01T01:49:18.508Z,37
2023-05-01T01:50:16.935Z,37
2023-05-01T01:51:16.875Z,37
2023-05-01T01:52:16.909Z,37
2023-05-01T01:53:16.854Z,37
2023-05-01T01:54:16.899Z,37
2023-05-01T01:55:16.840Z,37
2023-05-01T01:56:16.882Z,36
2023-05-01T01:57:16.819Z,36
2023-05-01T01:58:16.869Z,37
2023-05-01T01:59:16.911Z,37
2023-05-01T02:00:16.767Z,37
2023-05-01T02:01:16.863Z,37
2023-05-01T02:02:16.748Z,37
2023-05-01T02:03:16.893Z,37
2023-05-01T02:04:16.891Z,37
2023-05-01T02:05:16.790Z,37
2023-05-01T02:06:16.728Z,37
2023-05-01T02:07:16.775Z,37
2023-05-01T02:08:16.679Z,37
2023-05-01T02:09:16.765Z,37
2023-05-01T02:10:16.655Z,37
2023-05-01T02:11:16.730Z,37
2023-05-01T02:12:16.637Z,37
2023-05-01T02:13:16.701Z,37
2023-05-01T02:14:16.625Z,37
2023-05-01T02:15:16.716Z,37
2023-05-01T02:16:16.609Z,37
2023-05-01T02:17:16.792Z,37
2023-05-01T02:18:16.586Z,37
2023-05-01T02:19:16.646Z,37
2023-05-01T02:20:16.551Z,38
2023-05-01T02:21:16.628Z,38
2023-05-01T02:22:16.538Z,38
2023-05-01T02:23:16.591Z,38
2023-05-01T02:24:16.508Z,38
2023-05-01T02:25:16.702Z,38
2023-05-01T02:26:16.487Z,38
2023-05-01T02:27:16.569Z,38
2023-05-01T02:28:16.470Z,38
2023-05-01T02:29:16.554Z,38
2023-05-01T02:30:16.458Z,38
2023-05-01T02:31:16.552Z,38
2023-05-01T02:32:16.424Z,38
2023-05-01T02:33:16.495Z,37
2023-05-01T02:34:16.406Z,38
2023-05-01T02:35:16.465Z,38
2023-05-01T02:36:16.387Z,38
2023-05-01T02:37:16.444Z,38
2023-05-01T02:38:16.355Z,38
2023-05-01T02:39:16.432Z,37
2023-05-01T02:40:16.335Z,37
2023-05-01T02:41:16.406Z,37
2023-05-01T02:42:16.318Z,37
2023-05-01T02:43:16.376Z,37
2023-05-01T02:44:16.289Z,38
2023-05-01T02:45:16.353Z,38
2023-05-01T02:46:16.272Z,38
2023-05-01T02:47:16.385Z,37
2023-05-01T02:48:16.307Z,37
2023-05-01T02:49:16.310Z,37
2023-05-01T02:50:16.222Z,37
2023-05-01T02:51:16.308Z,37
2023-05-01T02:52:16.212Z,37
2023-05-01T02:53:16.284Z,37
2023-05-01T02:54:16.190Z,38
2023-05-01T02:55:16.251Z,38
2023-05-01T02:56:16.164Z,37
2023-05-01T02:57:16.241Z,37
2023-05-01T02:58:16.139Z,37
2023-05-01T02:59:16.282Z,37
2023-05-01T03:00:16.120Z,37
2023-05-01T03:01:16.234Z,37
2023-05-01T03:02:16.091Z,37
2023-05-01T03:03:16.415Z,37
2023-05-01T03:04:16.122Z,37
2023-05-01T03:05:16.150Z,37
2023-05-01T03:06:16.070Z,37
2023-05-01T03:07:16.139Z,37
2023-05-01T03:08:16.059Z,37
2023-05-01T03:09:16.106Z,37
2023-05-01T03:10:16.004Z,37
2023-05-01T03:11:16.082Z,37
2023-05-01T03:12:15.983Z,37
2023-05-01T03:13:16.057Z,37
2023-05-01T03:14:15.960Z,37
2023-05-01T03:15:16.031Z,37
2023-05-01T03:16:15.984Z,38
2023-05-01T03:17:16.005Z,38
2023-05-01T03:18:15.918Z,38
2023-05-01T03:19:15.995Z,38
2023-05-01T03:20:15.898Z,38
2023-05-01T03:21:15.968Z,37
2023-05-01T03:22:15.880Z,37
2023-05-01T03:23:15.953Z,37
2023-05-01T03:24:15.896Z,37
2023-05-01T03:25:15.937Z,37
2023-05-01T03:26:15.828Z,37
2023-05-01T03:27:15.889Z,37
2023-05-01T03:28:15.817Z,37
2023-05-01T03:29:15.876Z,37
2023-05-01T03:30:15.817Z,37
2023-05-01T03:31:15.879Z,37
2023-05-01T03:32:15.862Z,37
2023-05-01T03:33:15.880Z,37
2023-05-01T03:34:15.733Z,37
2023-05-01T03:35:15.935Z,37
2023-05-01T03:36:15.729Z,37
2023-05-01T03:37:15.785Z,37
2023-05-01T03:38:15.698Z,37
2023-05-01T03:39:15.775Z,37
2023-05-01T03:40:15.672Z,37
2023-05-01T03:41:15.844Z,37
2023-05-01T03:42:15.596Z,372.
2023-05-01T03:43:15.680Z,375.
2023-05-01T03:44:15.576Z,376.
2023-05-01T03:45:15.650Z,375.
2023-05-01T03:46:15.651Z,375.
2023-05-01T03:47:15.623Z,374.
2023-05-01T03:48:15.669Z,37
2023-05-01T03:49:15.567Z,375.
2023-05-01T03:50:15.583Z,374.
2023-05-01T03:51:15.507Z,373.
2023-05-01T03:52:15.577Z,371.
2023-05-01T03:53:15.490Z,371.
2023-05-01T03:54:15.536Z,370.
2023-05-01T03:55:15.470Z,370.
2023-05-01T03:56:15.519Z,373.
2023-05-01T03:57:15.468Z,374.
2023-05-01T03:58:15.501Z,374.
2023-05-01T03:59:15.429Z,375.
2023-05-01T04:00:15.475Z,377.
2023-05-01T04:01:15.412Z,377.
2023-05-01T04:02:15.482Z,377.
2023-05-01T04:03:15.449Z,376.
2023-05-01T04:04:15.472Z,377.
2023-05-01T04:05:15.361Z,378.
2023-05-01T04:06:15.466Z,378.
2023-05-01T04:07:15.343Z,377.
2023-05-01T04:08:15.401Z,373.
2023-05-01T04:09:15.316Z,373.
2023-05-01T04:10:15.367Z,375.
2023-05-01T04:11:15.299Z,374.
2023-05-01T04:12:15.357Z,374.
2023-05-01T04:13:15.278Z,373.
2023-05-01T04:14:15.476Z,373.
2023-05-01T04:15:15.710Z,373.
2023-05-01T04:16:15.345Z,373.
2023-05-01T04:17:15.229Z,376.
2023-05-01T04:18:15.330Z,377.
2023-05-01T04:19:15.231Z,379.
2023-05-01T04:20:15.262Z,376.
2023-05-01T04:21:15.193Z,372.
2023-05-01T04:22:15.236Z,370.
2023-05-01T04:23:15.164Z,371.
2023-05-01T04:24:15.217Z,371.
2023-05-01T04:25:15.148Z,370.
2023-05-01T04:26:15.190Z,370.
2023-05-01T04:27:15.118Z,371.
2023-05-01T04:28:15.165Z,370.
2023-05-01T04:29:15.099Z,368.
2023-05-01T04:30:15.143Z,368.00
2023-05-01T04:31:15.120Z,369.00
2023-05-01T04:32:15.122Z,370.00
2023-05-01T04:33:15.055Z,370.00
2023-05-01T04:34:15.113Z,370.00
2023-05-01T04:35:15.041Z,371.00
2023-05-01T04:36:15.086Z,371.00
2023-05-01T04:37:15.010Z,371.00
2023-05-01T04:38:15.046Z,370.00
2023-05-01T04:39:14.986Z,368.00
2023-05-01T04:40:15.036Z,370.00
2023-05-01T04:41:14.953Z,372.00
2023-05-01T04:42:14.999Z,374.00
2023-05-01T04:43:14.938Z,374.00
2023-05-01T04:44:14.990Z,373.00
2023-05-01T04:45:14.919Z,372.00
2023-05-01T04:46:14.962Z,372.00
2023-05-01T04:47:14.898Z,373.00
2023-05-01T04:48:14.978Z,373.00
2023-05-01T04:49:14.870Z,373.00
2023-05-01T04:50:14.924Z,375.00
2023-05-01T04:51:14.844Z,373.00
2023-05-01T04:52:14.900Z,375.00
2023-05-01T04:53:14.826Z,375.00
2023-05-01T04:54:14.877Z,374.00
2023-05-01T04:55:14.806Z,378.00
2023-05-01T04:56:14.851Z,378.00
2023-05-01T04:57:14.775Z,378.00
2023-05-01T04:58:14.882Z,378.00
2023-05-01T04:59:14.753Z,379.00
2023-05-01T05:00:14.815Z,380.00
2023-05-01T05:01:14.760Z,379.00
2023-05-01T05:02:14.782Z,380.00
2023-05-01T05:03:14.792Z,379.00
2023-05-01T05:04:14.781Z,379.00
2023-05-01T05:05:14.687Z,377.00
2023-05-01T05:06:14.768Z,379.00
2023-05-01T05:07:14.667Z,383.00
2023-05-01T05:08:14.732Z,383.00
2023-05-01T05:09:14.644Z,384.00
2023-05-01T05:10:14.691Z,384.00
2023-05-01T05:11:14.632Z,384.00
2023-05-01T05:12:14.665Z,384.00
2023-05-01T05:13:14.603Z,381.00
2023-05-01T05:14:14.694Z,380.00
2023-05-01T05:15:14.581Z,380.00
2023-05-01T05:16:14.658Z,380.00
2023-05-01T05:17:14.563Z,380.00
2023-05-01T05:18:14.664Z,380.00
2023-05-01T05:19:14.539Z,379.00
2023-05-01T05:20:14.581Z,380.00
2023-05-01T05:21:14.520Z,376.00
2023-05-01T05:22:14.554Z,375.00
2023-05-01T05:23:14.495Z,376.00
2023-05-01T05:24:14.556Z,375.00
2023-05-01T05:25:14.506Z,375.00
2023-05-01T05:26:14.514Z,375.00
2023-05-01T05:27:14.456Z,372.00
2023-05-01T05:28:14.501Z,370.00
2023-05-01T05:29:14.423Z,369.00
2023-05-01T05:30:14.498Z,371.00
2023-05-01T05:31:14.416Z,371.00
2023-05-01T05:32:14.477Z,371.00
2023-05-01T05:33:14.403Z,372.00
2023-05-01T05:34:14.431Z,372.00
2023-05-01T05:35:14.363Z,375.00
2023-05-01T05:36:14.411Z,377.00
2023-05-01T05:37:14.341Z,379.00
2023-05-01T05:38:14.399Z,377.00
2023-05-01T05:39:14.454Z,378.00
2023-05-01T05:40:14.300Z,375.00
2023-05-01T05:41:14.361Z,371.00
2023-05-01T05:42:14.266Z,374.00
2023-05-01T05:43:14.361Z,373.00
2023-05-01T05:44:14.262Z,374.00
2023-05-01T05:45:14.327Z,373.00
2023-05-01T05:46:14.268Z,376.00
2023-05-01T05:47:14.305Z,377.00
2023-05-01T05:48:14.254Z,378.00
2023-05-01T05:49:14.266Z,380.00
2023-05-01T05:50:14.223Z,378.00
2023-05-01T05:51:14.256Z,377.00
2023-05-01T05:52:14.177Z,378.00
2023-05-01T05:53:14.219Z,379.00
2023-05-01T05:54:14.157Z,378.00
2023-05-01T05:55:14.796Z,379.00
2023-05-01T05:56:14.139Z,380.00
2023-05-01T05:57:14.172Z,379.00
2023-05-01T05:58:14.112Z,378.00
2023-05-01T05:59:15.976Z,378.00
2023-05-01T06:00:14.092Z,379.00
2023-05-01T06:01:14.142Z,380.00
2023-05-01T06:02:14.109Z,382.00
2023-05-01T06:03:14.262Z,385.00
2023-05-01T06:04:14.049Z,385.00
2023-05-01T06:05:14.112Z,383.00
2023-05-01T06:06:14.048Z,382.00
2023-05-01T06:07:14.102Z,382.00
2023-05-01T06:08:14.043Z,382.00
2023-05-01T06:09:14.071Z,383.00
2023-05-01T06:10:13.985Z,384.00
2023-05-01T06:11:14.025Z,383.00
2023-05-01T06:12:13.965Z,382.00
2023-05-01T06:13:14.834Z,380.00
2023-05-01T06:14:13.995Z,379.00
2023-05-01T06:15:13.979Z,378.00
2023-05-01T06:16:13.989Z,378.00
2023-05-01T06:17:13.969Z,381.00
2023-05-01T06:18:13.944Z,378.00
2023-05-01T06:19:13.943Z,378.00
2023-05-01T06:20:13.882Z,377.00
2023-05-01T06:21:13.946Z,375.00
2023-05-01T06:22:14.010Z,375.00
2023-05-01T06:23:13.856Z,376.00
2023-05-01T06:24:13.907Z,379.00
2023-05-01T06:25:13.822Z,379.00
2023-05-01T06:26:13.870Z,379.00
2023-05-01T06:27:13.789Z,376.00
2023-05-01T06:28:13.864Z,376.00
2023-05-01T06:29:13.760Z,377.00
2023-05-01T06:30:13.839Z,375.00
2023-05-01T06:31:13.788Z,373.00
2023-05-01T06:32:13.802Z,373.00
2023-05-01T06:33:13.751Z,375.00
2023-05-01T06:34:13.797Z,375.00
2023-05-01T06:35:13.695Z,375.00
2023-05-01T06:36:13.762Z,378.00
2023-05-01T06:37:13.669Z,377.00
2023-05-01T06:38:13.744Z,378.00
2023-05-01T06:39:13.648Z,377.00
2023-05-01T06:40:13.720Z,374.00
2023-05-01T06:41:13.625Z,372.00
2023-05-01T06:42:13.700Z,371.00
2023-05-01T06:43:13.624Z,371.00
2023-05-01T06:44:13.676Z,372.00
2023-05-01T06:45:13.583Z,373.00
2023-05-01T06:46:13.708Z,374.00
2023-05-01T06:47:13.621Z,372.00
2023-05-01T06:48:13.791Z,373.00
2023-05-01T06:49:13.531Z,373.00
2023-05-01T06:50:13.616Z,371.00
2023-05-01T06:51:13.515Z,369.00
2023-05-01T06:52:13.591Z,368.00
2023-05-01T06:53:13.504Z,369.00
2023-05-01T06:54:13.572Z,370.00
2023-05-01T06:55:13.484Z,371.00
2023-05-01T06:56:13.537Z,371.00
2023-05-01T06:57:13.456Z,370.00
2023-05-01T06:58:23.412Z,369.00
2023-05-01T06:59:13.438Z,367.00
2023-05-01T07:00:13.489Z,364.00
2023-05-01T07:01:13.429Z,364.00
2023-05-01T07:02:13.676Z,363.00
2023-05-01T07:03:13.437Z,366.00
2023-05-01T07:04:13.460Z,367.00
2023-05-01T07:05:13.374Z,371.00
2023-05-01T07:06:13.965Z,372.00
2023-05-01T07:07:13.343Z,372.00
2023-05-01T07:08:13.415Z,373.00
2023-05-01T07:09:13.313Z,373.00
2023-05-01T07:10:13.394Z,372.00
2023-05-01T07:11:13.298Z,373.00
2023-05-01T07:12:13.372Z,373.00
2023-05-01T07:13:13.276Z,376.00
2023-05-01T07:14:13.338Z,375.00
2023-05-01T07:15:13.254Z,375.00
2023-05-01T07:16:13.378Z,375.00
2023-05-01T07:17:13.239Z,375.00
2023-05-01T07:18:13.316Z,377.00
2023-05-01T07:19:13.215Z,378.00
2023-05-01T07:20:13.282Z,378.00
2023-05-01T07:21:13.188Z,380.00
2023-05-01T07:22:13.250Z,379.00
2023-05-01T07:23:13.165Z,377.00
2023-05-01T07:24:13.234Z,375.00
2023-05-01T07:25:13.140Z,376.00
2023-05-01T07:26:13.213Z,378.00
2023-05-01T07:27:13.123Z,379.00
2023-05-01T07:28:13.207Z,381.00
2023-05-01T07:29:13.099Z,384.00
2023-05-01T07:30:13.181Z,384.00
2023-05-01T07:31:13.093Z,383.00
2023-05-01T07:32:13.243Z,382.00
2023-05-01T07:33:13.103Z,383.00
2023-05-01T07:34:13.118Z,384.00
2023-05-01T07:35:13.175Z,384.00
2023-05-01T07:36:13.039Z,382.00
2023-05-01T07:37:13.069Z,381.00
2023-05-01T07:38:13.013Z,381.00
2023-05-01T07:39:13.065Z,380.00
2023-05-01T07:40:13.014Z,376.00
2023-05-01T07:41:13.041Z,373.00
2023-05-01T07:42:12.978Z,373.00
2023-05-01T07:43:13.049Z,373.00
2023-05-01T07:44:12.954Z,374.00
2023-05-01T07:45:12.990Z,375.00
2023-05-01T07:46:13.005Z,376.00
2023-05-01T07:47:12.984Z,377.00
2023-05-01T07:48:12.920Z,379.00
2023-05-01T07:49:12.960Z,380.00
2023-05-01T07:50:12.909Z,380.00
2023-05-01T07:51:13.156Z,383.00
2023-05-01T07:52:12.868Z,384.00
2023-05-01T07:53:12.902Z,385.00
2023-05-01T07:54:12.840Z,385.00
2023-05-01T07:55:12.901Z,387.00
2023-05-01T07:56:12.819Z,387.00
2023-05-01T07:57:12.857Z,386.00
2023-05-01T07:58:12.794Z,386.00
2023-05-01T07:59:12.851Z,384.00
2023-05-01T08:00:12.774Z,384.00
2023-05-01T08:01:12.844Z,383.00
2023-05-01T08:02:12.785Z,384.00
2023-05-01T08:03:12.998Z,385.00
2023-05-01T08:04:12.843Z,384.00
2023-05-01T08:05:12.782Z,386.00
2023-05-01T08:06:12.791Z,385.00
2023-05-01T08:07:12.754Z,387.00
2023-05-01T08:08:12.686Z,387.00
2023-05-01T08:09:12.727Z,384.00
2023-05-01T08:10:12.706Z,384.00
2023-05-01T08:11:12.725Z,384.00
2023-05-01T08:12:12.645Z,383.00
2023-05-01T08:13:12.713Z,383.00
2023-05-01T08:14:12.629Z,381.00
2023-05-01T08:15:12.673Z,380.00
2023-05-01T08:16:12.654Z,379.00
2023-05-01T08:17:12.660Z,380.00
2023-05-01T08:18:12.623Z,381.00
2023-05-01T08:19:12.636Z,381.00
2023-05-01T08:20:12.561Z,380.00
2023-05-01T08:21:12.607Z,379.00
2023-05-01T08:22:12.544Z,379.00
2023-05-01T08:23:12.578Z,379.00
2023-05-01T08:24:12.516Z,376.00
2023-05-01T08:25:12.557Z,377.00
2023-05-01T08:26:12.498Z,379.00
2023-05-01T08:27:12.536Z,377.00
2023-05-01T08:28:12.478Z,377.00
2023-05-01T08:29:12.527Z,376.00
2023-05-01T08:30:12.464Z,374.00
2023-05-01T08:31:12.521Z,374.00
2023-05-01T08:32:12.435Z,373.00
2023-05-01T08:33:12.491Z,374.00
2023-05-01T08:34:12.411Z,376.00
2023-05-01T08:35:12.530Z,376.00
2023-05-01T08:36:12.385Z,378.00
2023-05-01T08:37:12.437Z,377.00
2023-05-01T08:38:12.383Z,379.00
2023-05-01T08:39:12.407Z,377.00
2023-05-01T08:40:12.365Z,378.00
2023-05-01T08:41:12.389Z,378.00
2023-05-01T08:42:12.327Z,378.00
2023-05-01T08:43:12.364Z,378.00
2023-05-01T08:44:12.295Z,381.00
2023-05-01T08:45:12.350Z,380.00
2023-05-01T08:46:12.327Z,378.00
2023-05-01T08:47:12.494Z,377.00
2023-05-01T08:48:12.285Z,376.00
2023-05-01T08:49:12.298Z,375.00
2023-05-01T08:50:12.249Z,377.00
2023-05-01T08:51:12.284Z,376.00
2023-05-01T08:52:12.217Z,377.00
2023-05-01T08:53:12.262Z,379.00
2023-05-01T08:54:12.189Z,379.00
2023-05-01T08:55:12.233Z,379.00
2023-05-01T08:56:12.167Z,380.00
2023-05-01T08:57:12.202Z,380.00
2023-05-01T08:58:12.146Z,384.00
2023-05-01T08:59:12.184Z,384.00
2023-05-01T09:00:12.124Z,385.00
2023-05-01T09:01:12.195Z,384.00
2023-05-01T09:02:12.400Z,381.00
2023-05-01T09:03:12.268Z,383.00
2023-05-01T09:04:12.288Z,381.00
2023-05-01T09:05:12.209Z,382.00
2023-05-01T09:06:12.108Z,383.00
2023-05-01T09:07:12.114Z,382.00
2023-05-01T09:08:12.037Z,381.00
2023-05-01T09:09:12.082Z,380.00
2023-05-01T09:10:12.017Z,379.00
2023-05-01T09:11:12.072Z,380.00
2023-05-01T09:12:11.991Z,381.00
2023-05-01T09:13:12.046Z,383.00
2023-05-01T09:14:11.979Z,382.00
2023-05-01T09:15:12.049Z,383.00
2023-05-01T09:16:11.994Z,381.00
2023-05-01T09:17:11.982Z,383.00
2023-05-01T09:18:11.971Z,384.00
2023-05-01T09:19:11.979Z,382.00
2023-05-01T09:20:11.929Z,384.00
2023-05-01T09:21:11.948Z,383.00
2023-05-01T09:22:11.889Z,385.00
2023-05-01T09:23:11.937Z,386.00
2023-05-01T09:24:11.878Z,391.00
2023-05-01T09:25:11.905Z,390.00
2023-05-01T09:26:11.854Z,389.00
2023-05-01T09:27:11.885Z,389.00
2023-05-01T09:28:11.832Z,388.00
2023-05-01T09:29:11.883Z,386.00
2023-05-01T09:30:11.806Z,387.00
2023-05-01T09:31:11.856Z,387.00
2023-05-01T09:32:11.872Z,385.00
2023-05-01T09:33:11.979Z,387.00
2023-05-01T09:34:11.769Z,389.00
2023-05-01T09:35:11.806Z,389.00
2023-05-01T09:36:11.735Z,385.00
2023-05-01T09:37:11.791Z,387.00
2023-05-01T09:38:11.718Z,385.00
2023-05-01T09:39:11.766Z,384.00
2023-05-01T09:40:11.701Z,385.00
2023-05-01T09:41:11.755Z,385.00
2023-05-01T09:42:11.686Z,384.00
2023-05-01T09:43:11.914Z,380.00
2023-05-01T09:44:11.649Z,382.00
2023-05-01T09:45:11.683Z,382.00
2023-05-01T09:46:11.701Z,380.00
2023-05-01T09:47:11.679Z,379.00
2023-05-01T09:48:11.940Z,380.00
2023-05-01T09:49:11.680Z,382.00
2023-05-01T09:50:11.589Z,383.00
2023-05-01T09:51:11.644Z,383.00
2023-05-01T09:52:11.567Z,384.00
2023-05-01T09:53:11.606Z,387.00
2023-05-01T09:54:11.546Z,388.00
2023-05-01T09:55:11.617Z,388.00
2023-05-01T09:56:11.521Z,388.00
2023-05-01T09:57:11.573Z,387.00
2023-05-01T09:58:11.501Z,387.00
2023-05-01T09:59:11.557Z,387.00
2023-05-01T10:00:11.476Z,386.00
2023-05-01T10:01:11.585Z,385.00
2023-05-01T10:02:11.517Z,383.00
2023-05-01T10:03:11.638Z,382.00
2023-05-01T10:04:11.437Z,381.00
2023-05-01T10:05:11.507Z,380.00
2023-05-01T10:06:11.435Z,379.00
2023-05-01T10:07:11.477Z,375.00
2023-05-01T10:08:11.386Z,375.00
2023-05-01T10:09:11.446Z,377.00
2023-05-01T10:10:11.359Z,375.00
2023-05-01T10:11:11.448Z,375.00
2023-05-01T10:12:11.337Z,376.00
2023-05-01T10:13:11.411Z,378.00
2023-05-01T10:14:11.336Z,381.00
2023-05-01T10:15:24.038Z,380.00
2023-05-01T10:16:11.321Z,382.00
2023-05-01T10:17:11.445Z,384.00
2023-05-01T10:18:11.359Z,386.00
2023-05-01T10:19:11.357Z,387.00
2023-05-01T10:20:11.252Z,386.00
2023-05-01T10:21:11.318Z,386.00
2023-05-01T10:22:11.291Z,388.00
2023-05-01T10:23:11.304Z,389.00
2023-05-01T10:24:11.332Z,391.00
2023-05-01T10:25:11.271Z,390.00
2023-05-01T10:26:11.179Z,388.00
2023-05-01T10:27:11.267Z,388.00
2023-05-01T10:28:11.177Z,385.00
2023-05-01T10:29:11.252Z,381.00
2023-05-01T10:30:11.168Z,384.00
2023-05-01T10:31:11.234Z,385.00
2023-05-01T10:32:11.117Z,384.00
2023-05-01T10:33:11.245Z,385.00
2023-05-01T10:34:11.126Z,386.00
2023-05-01T10:35:11.175Z,384.00
2023-05-01T10:36:11.104Z,385.00
2023-05-01T10:37:11.149Z,386.00
2023-05-01T10:38:11.058Z,390.00
2023-05-01T10:39:11.110Z,390.00
2023-05-01T10:40:11.037Z,387.00
2023-05-01T10:41:11.106Z,386.00
2023-05-01T10:42:11.338Z,384.00
2023-05-01T10:43:11.073Z,386.00
2023-05-01T10:44:10.990Z,388.00
2023-05-01T10:45:11.066Z,389.00
2023-05-01T10:46:10.975Z,388.00
2023-05-01T10:47:12.047Z,386.00
2023-05-01T10:48:11.028Z,387.00
2023-05-01T10:49:10.962Z,386.00
2023-05-01T10:50:11.011Z,387.00
2023-05-01T10:51:10.930Z,386.00
2023-05-01T10:52:10.976Z,385.00
2023-05-01T10:53:10.901Z,387.00
2023-05-01T10:54:10.952Z,386.00
2023-05-01T10:55:10.878Z,385.00
2023-05-01T10:56:10.928Z,384.00
2023-05-01T10:57:10.864Z,385.00
2023-05-01T10:58:10.911Z,384.00
2023-05-01T10:59:10.850Z,387.00
2023-05-01T11:00:10.888Z,386.00
2023-05-01T11:01:10.813Z,386.00
2023-05-01T11:02:10.890Z,387.00
2023-05-01T11:03:10.842Z,387.00
2023-05-01T11:04:10.842Z,387.00
2023-05-01T11:05:10.814Z,386.00
2023-05-01T11:06:10.993Z,385.00
2023-05-01T11:07:11.004Z,387.00
2023-05-01T11:08:10.790Z,388.00
2023-05-01T11:09:10.728Z,385.00
2023-05-01T11:10:10.798Z,387.00
2023-05-01T11:11:10.704Z,386.00
2023-05-01T11:12:10.752Z,387.00
2023-05-01T11:13:10.702Z,387.00
2023-05-01T11:14:10.731Z,388.00
2023-05-01T11:15:10.664Z,389.00
2023-05-01T11:16:10.737Z,389.00
2023-05-01T11:17:10.641Z,388.00
2023-05-01T11:18:10.706Z,386.00
2023-05-01T11:19:10.622Z,386.00
2023-05-01T11:20:10.676Z,386.00
2023-05-01T11:21:10.598Z,388.00
2023-05-01T11:22:10.667Z,388.00
2023-05-01T11:23:10.576Z,389.00
2023-05-01T11:24:10.629Z,387.00
2023-05-01T11:25:10.580Z,387.00
2023-05-01T11:26:10.596Z,390.00
2023-05-01T11:27:10.533Z,389.00
2023-05-01T11:28:10.583Z,389.00
2023-05-01T11:29:10.516Z,390.00
2023-05-01T11:30:10.565Z,388.00
2023-05-01T11:31:10.500Z,385.00
2023-05-01T11:32:10.718Z,386.00
2023-05-01T11:33:11.286Z,386.00
2023-05-01T11:34:10.522Z,385.00
2023-05-01T11:35:10.450Z,387.00
2023-05-01T11:36:10.499Z,388.00
2023-05-01T11:37:10.444Z,387.00
2023-05-01T11:38:10.502Z,391.00
2023-05-01T11:39:10.403Z,391.00
2023-05-01T11:40:10.513Z,389.00
2023-05-01T11:41:10.421Z,387.00
2023-05-01T11:42:10.577Z,387.00
2023-05-01T11:43:10.362Z,386.00
2023-05-01T11:44:10.400Z,384.00
2023-05-01T11:45:10.351Z,383.00
2023-05-01T11:46:10.430Z,385.00
2023-05-01T11:47:10.316Z,384.00
2023-05-01T11:48:10.379Z,383.00
2023-05-01T11:49:10.296Z,382.00
2023-05-01T11:50:10.433Z,383.00
2023-05-01T11:51:10.272Z,381.00
2023-05-01T11:52:10.314Z,380.00
2023-05-01T11:53:10.246Z,378.00
2023-05-01T11:54:10.287Z,378.00
2023-05-01T11:55:10.260Z,380.00
2023-05-01T11:56:19.526Z,378.00
2023-05-01T11:57:10.207Z,380.00
2023-05-01T11:58:10.257Z,380.00
2023-05-01T11:59:10.187Z,381.00
2023-05-01T12:00:10.268Z,383.00
2023-05-01T12:01:10.162Z,382.00
2023-05-01T12:02:10.267Z,381.00
2023-05-01T12:03:10.350Z,383.00
2023-05-01T12:04:10.250Z,383.00
2023-05-01T12:05:10.120Z,382.00
2023-05-01T12:06:10.221Z,381.00
2023-05-01T12:07:10.127Z,382.00
2023-05-01T12:08:10.152Z,382.00
2023-05-01T12:09:10.080Z,383.00
2023-05-01T12:10:10.147Z,385.00
2023-05-01T12:11:10.059Z,384.00
2023-05-01T12:12:10.110Z,384.00
2023-05-01T12:13:10.059Z,382.00
2023-05-01T12:14:10.084Z,381.00
2023-05-01T12:15:10.016Z,383.00
2023-05-01T12:16:10.063Z,383.00
2023-05-01T12:17:10.020Z,382.00
2023-05-01T12:18:10.177Z,382.00
2023-05-01T12:19:09.965Z,382.00
2023-05-01T12:20:10.014Z,386.00
2023-05-01T12:21:09.946Z,383.00
2023-05-01T12:22:09.997Z,380.00
2023-05-01T12:23:09.928Z,380.00
2023-05-01T12:24:09.973Z,379.00
2023-05-01T12:25:09.908Z,380.00
2023-05-01T12:26:09.951Z,379.00
2023-05-01T12:27:09.882Z,383.00
2023-05-01T12:28:09.924Z,383.00
2023-05-01T12:29:09.874Z,382.00
2023-05-01T12:30:09.901Z,384.00
2023-05-01T12:31:09.873Z,387.00
2023-05-01T12:32:09.921Z,383.00
2023-05-01T12:33:09.899Z,381.00
2023-05-01T12:34:09.852Z,380.00
2023-05-01T12:35:09.806Z,381.00
2023-05-01T12:36:09.851Z,382.00
2023-05-01T12:37:09.774Z,383.00
2023-05-01T12:38:09.820Z,382.00
2023-05-01T12:39:09.746Z,380.00
2023-05-01T12:40:09.990Z,381.00
2023-05-01T12:41:09.769Z,382.00
2023-05-01T12:42:09.766Z,381.00
2023-05-01T12:43:09.703Z,384.00
2023-05-01T12:44:10.759Z,382.00
2023-05-01T12:45:09.758Z,382.00
2023-05-01T12:46:09.711Z,384.00
2023-05-01T12:47:09.731Z,386.00
2023-05-01T12:48:09.682Z,385.00
2023-05-01T12:49:09.700Z,386.00
2023-05-01T12:50:09.617Z,387.00
2023-05-01T12:51:09.722Z,386.00
2023-05-01T12:52:09.656Z,385.00
2023-05-01T12:53:09.683Z,387.00
2023-05-01T12:54:09.584Z,389.00
2023-05-01T12:55:09.644Z,387.00
2023-05-01T12:56:09.552Z,386.00
2023-05-01T12:57:09.630Z,388.00
2023-05-01T12:58:09.529Z,388.00
2023-05-01T12:59:09.595Z,388.00